sensor_id;sensor_type;location;lat;lon;timestamp;temperature;humidity
43987;DHT22;29650;47.378;8.300;2023-07-24T00:00:19;21.10;67.60
43987;DHT22;29650;47.378;8.300;2023-07-24T00:02:46;21.30;66.90
43987;DHT22;29650;47.378;8.300;2023-07-24T00:05:13;21.30;67.00
43987;DHT22;29650;47.378;8.300;2023-07-24T00:07:40;20.70;68.50
43987;DHT22;29650;47.378;8.300;2023-07-24T00:10:07;21.30;68.60
43987;DHT22;29650;47.378;8.300;2023-07-24T00:12:37;20.70;68.20
43987;DHT22;29650;47.378;8.300;2023-07-24T00:15:04;21.30;68.90
43987;DHT22;29650;47.378;8.300;2023-07-24T00:17:31;21.30;70.30
43987;DHT22;29650;47.378;8.300;2023-07-24T00:19:58;21.30;71.90
43987;DHT22;29650;47.378;8.300;2023-07-24T00:22:25;21.30;72.20
43987;DHT22;29650;47.378;8.300;2023-07-24T00:24:52;21.20;74.70
43987;DHT22;29650;47.378;8.300;2023-07-24T00:27:19;20.80;75.70
43987;DHT22;29650;47.378;8.300;2023-07-24T00:29:47;20.70;73.30
43987;DHT22;29650;47.378;8.300;2023-07-24T00:32:14;21.30;68.90
43987;DHT22;29650;47.378;8.300;2023-07-24T00:34:41;21.50;68.00
43987;DHT22;29650;47.378;8.300;2023-07-24T00:37:08;21.20;73.00
43987;DHT22;29650;47.378;8.300;2023-07-24T00:39:35;21.30;75.30
43987;DHT22;29650;47.378;8.300;2023-07-24T00:42:02;21.40;76.40
43987;DHT22;29650;47.378;8.300;2023-07-24T00:44:29;21.20;82.60
43987;DHT22;29650;47.378;8.300;2023-07-24T00:46:58;21.10;87.40
43987;DHT22;29650;47.378;8.300;2023-07-24T00:49:25;21.10;89.80
43987;DHT22;29650;47.378;8.300;2023-07-24T00:51:52;21.00;93.70
43987;DHT22;29650;47.378;8.300;2023-07-24T00:54:21;21.00;94.00
43987;DHT22;29650;47.378;8.300;2023-07-24T00:56:49;21.00;94.60
43987;DHT22;29650;47.378;8.300;2023-07-24T00:59:16;21.10;93.90
43987;DHT22;29650;47.378;8.300;2023-07-24T01:01:44;21.10;92.30
43987;DHT22;29650;47.378;8.300;2023-07-24T01:04:13;21.20;91.40
43987;DHT22;29650;47.378;8.300;2023-07-24T01:06:40;21.20;90.80
43987;DHT22;29650;47.378;8.300;2023-07-24T01:09:07;20.80;92.90
43987;DHT22;29650;47.378;8.300;2023-07-24T01:11:37;20.60;93.40
43987;DHT22;29650;47.378;8.300;2023-07-24T01:14:11;19.90;92.30
43987;DHT22;29650;47.378;8.300;2023-07-24T01:16:41;21.00;92.80
43987;DHT22;29650;47.378;8.300;2023-07-24T01:19:16;20.90;92.20
43987;DHT22;29650;47.378;8.300;2023-07-24T01:21:51;21.00;92.70
43987;DHT22;29650;47.378;8.300;2023-07-24T01:24:28;21.10;92.60
43987;DHT22;29650;47.378;8.300;2023-07-24T01:26:58;20.90;90.20
43987;DHT22;29650;47.378;8.300;2023-07-24T01:29:25;20.90;90.10
43987;DHT22;29650;47.378;8.300;2023-07-24T01:31:52;20.80;90.50
43987;DHT22;29650;47.378;8.300;2023-07-24T01:34:19;21.00;90.90
43987;DHT22;29650;47.378;8.300;2023-07-24T01:36:46;21.10;90.80
43987;DHT22;29650;47.378;8.300;2023-07-24T01:39:14;21.20;89.50
43987;DHT22;29650;47.378;8.300;2023-07-24T01:41:42;21.10;88.20
43987;DHT22;29650;47.378;8.300;2023-07-24T01:44:11;21.30;87.10
43987;DHT22;29650;47.378;8.300;2023-07-24T01:46:38;21.30;87.20
43987;DHT22;29650;47.378;8.300;2023-07-24T01:49:05;21.30;86.50
43987;DHT22;29650;47.378;8.300;2023-07-24T01:51:31;21.10;89.50
43987;DHT22;29650;47.378;8.300;2023-07-24T01:53:58;20.90;91.70
43987;DHT22;29650;47.378;8.300;2023-07-24T01:56:25;20.70;92.30
43987;DHT22;29650;47.378;8.300;2023-07-24T01:58:52;20.70;92.60
43987;DHT22;29650;47.378;8.300;2023-07-24T02:01:20;20.90;92.40
43987;DHT22;29650;47.378;8.300;2023-07-24T02:03:47;20.80;93.00
43987;DHT22;29650;47.378;8.300;2023-07-24T02:06:14;20.60;94.20
43987;DHT22;29650;47.378;8.300;2023-07-24T02:08:41;20.70;93.20
43987;DHT22;29650;47.378;8.300;2023-07-24T02:11:14;20.70;92.90
43987;DHT22;29650;47.378;8.300;2023-07-24T02:13:44;20.50;95.20
43987;DHT22;29650;47.378;8.300;2023-07-24T02:16:11;20.40;96.40
43987;DHT22;29650;47.378;8.300;2023-07-24T02:18:41;20.30;98.10
43987;DHT22;29650;47.378;8.300;2023-07-24T02:21:09;20.20;99.40
43987;DHT22;29650;47.378;8.300;2023-07-24T02:23:36;20.10;98.70
43987;DHT22;29650;47.378;8.300;2023-07-24T02:26:03;20.30;97.90
43987;DHT22;29650;47.378;8.300;2023-07-24T02:28:30;20.20;96.30
43987;DHT22;29650;47.378;8.300;2023-07-24T02:30:57;20.30;97.30
43987;DHT22;29650;47.378;8.300;2023-07-24T02:33:25;20.20;96.70
43987;DHT22;29650;47.378;8.300;2023-07-24T02:35:54;20.20;97.50
43987;DHT22;29650;47.378;8.300;2023-07-24T02:38:21;20.30;97.90
43987;DHT22;29650;47.378;8.300;2023-07-24T02:40:47;20.20;96.90
43987;DHT22;29650;47.378;8.300;2023-07-24T02:43:14;19.90;95.60
43987;DHT22;29650;47.378;8.300;2023-07-24T02:45:41;19.40;98.20
43987;DHT22;29650;47.378;8.300;2023-07-24T02:48:09;19.40;99.90
43987;DHT22;29650;47.378;8.300;2023-07-24T02:50:35;19.60;98.30
43987;DHT22;29650;47.378;8.300;2023-07-24T02:53:04;19.60;97.70
43987;DHT22;29650;47.378;8.300;2023-07-24T02:55:31;19.70;97.10
43987;DHT22;29650;47.378;8.300;2023-07-24T02:57:58;19.80;96.60
43987;DHT22;29650;47.378;8.300;2023-07-24T03:00:25;20.00;95.90
43987;DHT22;29650;47.378;8.300;2023-07-24T03:02:52;19.90;95.00
43987;DHT22;29650;47.378;8.300;2023-07-24T03:05:19;19.80;96.10
43987;DHT22;29650;47.378;8.300;2023-07-24T03:07:46;19.70;96.80
43987;DHT22;29650;47.378;8.300;2023-07-24T03:10:14;19.90;97.00
43987;DHT22;29650;47.378;8.300;2023-07-24T03:12:41;19.90;97.00
43987;DHT22;29650;47.378;8.300;2023-07-24T03:15:09;19.80;99.60
43987;DHT22;29650;47.378;8.300;2023-07-24T03:17:36;19.80;99.90
43987;DHT22;29650;47.378;8.300;2023-07-24T03:20:13;21.60;99.90
43987;DHT22;29650;47.378;8.300;2023-07-24T03:22:40;19.90;99.50
43987;DHT22;29650;47.378;8.300;2023-07-24T03:25:08;19.80;97.60
43987;DHT22;29650;47.378;8.300;2023-07-24T03:27:37;19.80;97.60
43987;DHT22;29650;47.378;8.300;2023-07-24T03:30:05;19.80;97.30
43987;DHT22;29650;47.378;8.300;2023-07-24T03:32:32;19.80;96.90
43987;DHT22;29650;47.378;8.300;2023-07-24T03:34:59;19.70;96.70
43987;DHT22;29650;47.378;8.300;2023-07-24T03:37:26;19.70;97.10
43987;DHT22;29650;47.378;8.300;2023-07-24T03:39:53;19.60;97.70
43987;DHT22;29650;47.378;8.300;2023-07-24T03:42:27;19.50;97.80
43987;DHT22;29650;47.378;8.300;2023-07-24T03:44:57;19.70;97.60
43987;DHT22;29650;47.378;8.300;2023-07-24T03:47:24;19.80;98.10
43987;DHT22;29650;47.378;8.300;2023-07-24T03:49:51;19.80;98.80
43987;DHT22;29650;47.378;8.300;2023-07-24T03:52:18;19.60;99.90
43987;DHT22;29650;47.378;8.300;2023-07-24T03:54:45;19.50;99.90
43987;DHT22;29650;47.378;8.300;2023-07-24T03:57:12;19.60;99.90
43987;DHT22;29650;47.378;8.300;2023-07-24T03:59:39;19.60;99.90
43987;DHT22;29650;47.378;8.300;2023-07-24T04:02:07;19.60;99.90
43987;DHT22;29650;47.378;8.300;2023-07-24T04:04:34;19.70;99.90
43987;DHT22;29650;47.378;8.300;2023-07-24T04:07:01;19.80;99.90
43987;DHT22;29650;47.378;8.300;2023-07-24T04:09:28;20.00;99.90
43987;DHT22;29650;47.378;8.300;2023-07-24T04:11:55;19.90;99.90
43987;DHT22;29650;47.378;8.300;2023-07-24T04:14:22;20.00;99.90
43987;DHT22;29650;47.378;8.300;2023-07-24T04:16:49;19.90;99.90
43987;DHT22;29650;47.378;8.300;2023-07-24T04:19:17;19.80;99.90
43987;DHT22;29650;47.378;8.300;2023-07-24T04:21:44;19.80;99.90
43987;DHT22;29650;47.378;8.300;2023-07-24T04:24:11;19.70;99.90
43987;DHT22;29650;47.378;8.300;2023-07-24T04:26:38;19.70;99.90
43987;DHT22;29650;47.378;8.300;2023-07-24T04:29:06;19.80;99.90
43987;DHT22;29650;47.378;8.300;2023-07-24T04:31:33;19.80;99.90
43987;DHT22;29650;47.378;8.300;2023-07-24T04:34:00;19.70;99.90
43987;DHT22;29650;47.378;8.300;2023-07-24T04:36:28;19.40;99.90
43987;DHT22;29650;47.378;8.300;2023-07-24T04:38:55;19.40;99.90
43987;DHT22;29650;47.378;8.300;2023-07-24T04:41:22;19.30;99.90
43987;DHT22;29650;47.378;8.300;2023-07-24T04:43:49;18.90;99.90
43987;DHT22;29650;47.378;8.300;2023-07-24T04:46:16;18.70;99.90
43987;DHT22;29650;47.378;8.300;2023-07-24T04:48:43;18.80;99.90
43987;DHT22;29650;47.378;8.300;2023-07-24T04:51:10;18.90;99.90
43987;DHT22;29650;47.378;8.300;2023-07-24T04:53:38;19.10;99.90
43987;DHT22;29650;47.378;8.300;2023-07-24T04:56:05;19.30;99.90
43987;DHT22;29650;47.378;8.300;2023-07-24T04:58:35;19.50;99.90
43987;DHT22;29650;47.378;8.300;2023-07-24T05:01:05;19.40;99.90
43987;DHT22;29650;47.378;8.300;2023-07-24T05:03:32;19.50;99.90
43987;DHT22;29650;47.378;8.300;2023-07-24T05:05:59;19.50;99.90
43987;DHT22;29650;47.378;8.300;2023-07-24T05:08:26;19.60;99.90
43987;DHT22;29650;47.378;8.300;2023-07-24T05:10:58;19.50;99.90
43987;DHT22;29650;47.378;8.300;2023-07-24T05:13:25;19.60;99.90
43987;DHT22;29650;47.378;8.300;2023-07-24T05:15:52;19.70;99.90
43987;DHT22;29650;47.378;8.300;2023-07-24T05:18:19;19.50;99.90
43987;DHT22;29650;47.378;8.300;2023-07-24T05:20:47;19.60;99.90
43987;DHT22;29650;47.378;8.300;2023-07-24T05:23:16;19.60;99.90
43987;DHT22;29650;47.378;8.300;2023-07-24T05:25:43;19.40;99.90
43987;DHT22;29650;47.378;8.300;2023-07-24T05:28:12;19.60;99.90
43987;DHT22;29650;47.378;8.300;2023-07-24T05:30:39;19.60;99.90
43987;DHT22;29650;47.378;8.300;2023-07-24T05:33:06;19.20;99.90
43987;DHT22;29650;47.378;8.300;2023-07-24T05:35:33;19.30;99.90
43987;DHT22;29650;47.378;8.300;2023-07-24T05:38:00;19.40;99.90
43987;DHT22;29650;47.378;8.300;2023-07-24T05:40:26;19.60;99.90
43987;DHT22;29650;47.378;8.300;2023-07-24T05:42:53;19.60;99.90
43987;DHT22;29650;47.378;8.300;2023-07-24T05:45:22;19.60;99.90
43987;DHT22;29650;47.378;8.300;2023-07-24T05:47:48;19.50;99.90
43987;DHT22;29650;47.378;8.300;2023-07-24T05:50:16;19.40;99.90
43987;DHT22;29650;47.378;8.300;2023-07-24T05:52:43;19.50;99.90
43987;DHT22;29650;47.378;8.300;2023-07-24T05:55:09;19.60;99.90
43987;DHT22;29650;47.378;8.300;2023-07-24T05:57:36;19.40;99.90
43987;DHT22;29650;47.378;8.300;2023-07-24T06:00:05;19.50;99.90
43987;DHT22;29650;47.378;8.300;2023-07-24T06:02:34;19.80;99.90
43987;DHT22;29650;47.378;8.300;2023-07-24T06:05:01;19.80;99.90
43987;DHT22;29650;47.378;8.300;2023-07-24T06:07:28;17.70;99.90
43987;DHT22;29650;47.378;8.300;2023-07-24T06:09:55;20.10;99.90
43987;DHT22;29650;47.378;8.300;2023-07-24T06:12:22;20.20;99.90
43987;DHT22;29650;47.378;8.300;2023-07-24T06:14:49;20.40;99.90
43987;DHT22;29650;47.378;8.300;2023-07-24T06:17:16;20.50;99.90
43987;DHT22;29650;47.378;8.300;2023-07-24T06:19:44;20.10;99.90
43987;DHT22;29650;47.378;8.300;2023-07-24T06:22:11;20.30;99.90
43987;DHT22;29650;47.378;8.300;2023-07-24T06:24:38;20.40;99.90
43987;DHT22;29650;47.378;8.300;2023-07-24T06:27:05;20.40;99.90
43987;DHT22;29650;47.378;8.300;2023-07-24T06:29:33;20.40;99.90
43987;DHT22;29650;47.378;8.300;2023-07-24T06:32:00;20.50;99.90
43987;DHT22;29650;47.378;8.300;2023-07-24T06:34:27;20.50;99.90
43987;DHT22;29650;47.378;8.300;2023-07-24T06:36:55;19.50;99.90
43987;DHT22;29650;47.378;8.300;2023-07-24T06:39:22;20.40;99.90
43987;DHT22;29650;47.378;8.300;2023-07-24T06:41:51;20.30;99.90
43987;DHT22;29650;47.378;8.300;2023-07-24T06:44:18;20.50;99.90
43987;DHT22;29650;47.378;8.300;2023-07-24T06:46:45;20.40;99.90
43987;DHT22;29650;47.378;8.300;2023-07-24T06:49:12;20.30;99.90
43987;DHT22;29650;47.378;8.300;2023-07-24T06:51:39;20.20;99.90
43987;DHT22;29650;47.378;8.300;2023-07-24T06:54:07;20.40;99.90
43987;DHT22;29650;47.378;8.300;2023-07-24T06:56:34;20.40;99.90
43987;DHT22;29650;47.378;8.300;2023-07-24T06:59:01;20.60;99.90
43987;DHT22;29650;47.378;8.300;2023-07-24T07:01:28;20.60;99.90
43987;DHT22;29650;47.378;8.300;2023-07-24T07:03:55;20.60;99.90
43987;DHT22;29650;47.378;8.300;2023-07-24T07:06:21;20.60;99.90
43987;DHT22;29650;47.378;8.300;2023-07-24T07:08:48;20.70;99.90
43987;DHT22;29650;47.378;8.300;2023-07-24T07:11:17;20.70;99.90
43987;DHT22;29650;47.378;8.300;2023-07-24T07:13:44;20.60;99.90
43987;DHT22;29650;47.378;8.300;2023-07-24T07:16:11;20.60;99.90
43987;DHT22;29650;47.378;8.300;2023-07-24T07:18:38;20.40;99.90
43987;DHT22;29650;47.378;8.300;2023-07-24T07:21:04;20.30;99.90
43987;DHT22;29650;47.378;8.300;2023-07-24T07:23:31;20.30;99.90
43987;DHT22;29650;47.378;8.300;2023-07-24T07:25:58;20.40;99.90
43987;DHT22;29650;47.378;8.300;2023-07-24T07:28:26;20.60;99.90
43987;DHT22;29650;47.378;8.300;2023-07-24T07:30:54;20.60;99.90
43987;DHT22;29650;47.378;8.300;2023-07-24T07:33:21;20.80;99.90
43987;DHT22;29650;47.378;8.300;2023-07-24T07:35:48;20.90;99.90
43987;DHT22;29650;47.378;8.300;2023-07-24T07:38:15;20.80;99.90
43987;DHT22;29650;47.378;8.300;2023-07-24T07:40:42;20.60;99.90
43987;DHT22;29650;47.378;8.300;2023-07-24T07:43:08;20.80;99.90
43987;DHT22;29650;47.378;8.300;2023-07-24T07:45:37;20.90;99.90
43987;DHT22;29650;47.378;8.300;2023-07-24T07:48:04;20.90;99.90
43987;DHT22;29650;47.378;8.300;2023-07-24T07:50:31;20.90;99.90
43987;DHT22;29650;47.378;8.300;2023-07-24T07:52:57;21.00;99.90
43987;DHT22;29650;47.378;8.300;2023-07-24T07:55:24;21.10;99.90
43987;DHT22;29650;47.378;8.300;2023-07-24T07:57:51;21.10;99.90
43987;DHT22;29650;47.378;8.300;2023-07-24T08:00:18;21.10;99.90
43987;DHT22;29650;47.378;8.300;2023-07-24T08:02:47;21.20;99.90
43987;DHT22;29650;47.378;8.300;2023-07-24T08:05:14;21.20;99.90
43987;DHT22;29650;47.378;8.300;2023-07-24T08:07:41;21.20;99.90
43987;DHT22;29650;47.378;8.300;2023-07-24T08:10:08;21.40;99.90
43987;DHT22;29650;47.378;8.300;2023-07-24T08:12:35;21.50;99.90
43987;DHT22;29650;47.378;8.300;2023-07-24T08:15:02;21.60;99.90
43987;DHT22;29650;47.378;8.300;2023-07-24T08:17:29;21.50;99.90
43987;DHT22;29650;47.378;8.300;2023-07-24T08:19:58;21.20;99.90
43987;DHT22;29650;47.378;8.300;2023-07-24T08:22:25;21.60;99.90
43987;DHT22;29650;47.378;8.300;2023-07-24T08:24:52;21.80;99.90
43987;DHT22;29650;47.378;8.300;2023-07-24T08:27:19;22.00;99.90
43987;DHT22;29650;47.378;8.300;2023-07-24T08:29:46;22.00;99.90
43987;DHT22;29650;47.378;8.300;2023-07-24T08:32:16;22.10;99.90
43987;DHT22;29650;47.378;8.300;2023-07-24T08:34:43;22.40;99.90
43987;DHT22;29650;47.378;8.300;2023-07-24T08:37:11;22.60;99.90
43987;DHT22;29650;47.378;8.300;2023-07-24T08:39:38;21.80;99.90
43987;DHT22;29650;47.378;8.300;2023-07-24T08:42:10;22.20;99.90
43987;DHT22;29650;47.378;8.300;2023-07-24T08:44:38;22.40;99.90
43987;DHT22;29650;47.378;8.300;2023-07-24T08:47:08;22.50;99.90
43987;DHT22;29650;47.378;8.300;2023-07-24T08:49:37;22.60;99.90
43987;DHT22;29650;47.378;8.300;2023-07-24T08:52:06;22.80;99.90
43987;DHT22;29650;47.378;8.300;2023-07-24T08:54:39;22.90;99.90
43987;DHT22;29650;47.378;8.300;2023-07-24T08:57:07;23.20;97.80
43987;DHT22;29650;47.378;8.300;2023-07-24T08:59:35;23.30;98.00
43987;DHT22;29650;47.378;8.300;2023-07-24T09:02:05;23.50;96.00
43987;DHT22;29650;47.378;8.300;2023-07-24T09:04:33;23.70;94.70
43987;DHT22;29650;47.378;8.300;2023-07-24T09:07:01;23.90;87.20
43987;DHT22;29650;47.378;8.300;2023-07-24T09:09:30;23.50;86.40
43987;DHT22;29650;47.378;8.300;2023-07-24T09:12:01;23.50;85.80
43987;DHT22;29650;47.378;8.300;2023-07-24T09:14:29;23.70;84.70
43987;DHT22;29650;47.378;8.300;2023-07-24T09:17:04;23.70;90.40
43987;DHT22;29650;47.378;8.300;2023-07-24T09:19:31;23.70;89.70
43987;DHT22;29650;47.378;8.300;2023-07-24T09:22:08;23.50;84.50
43987;DHT22;29650;47.378;8.300;2023-07-24T09:24:37;23.50;84.30
43987;DHT22;29650;47.378;8.300;2023-07-24T09:27:09;23.80;83.00
43987;DHT22;29650;47.378;8.300;2023-07-24T09:29:38;23.90;86.00
43987;DHT22;29650;47.378;8.300;2023-07-24T09:32:06;24.10;87.90
43987;DHT22;29650;47.378;8.300;2023-07-24T09:34:33;23.90;78.70
43987;DHT22;29650;47.378;8.300;2023-07-24T09:37:01;24.00;77.40
43987;DHT22;29650;47.378;8.300;2023-07-24T09:39:28;24.00;83.10
43987;DHT22;29650;47.378;8.300;2023-07-24T09:42:03;24.00;80.60
43987;DHT22;29650;47.378;8.300;2023-07-24T09:44:32;23.80;78.30
43987;DHT22;29650;47.378;8.300;2023-07-24T09:46:59;23.60;79.40
43987;DHT22;29650;47.378;8.300;2023-07-24T09:49:27;23.80;78.80
43987;DHT22;29650;47.378;8.300;2023-07-24T09:51:58;24.00;79.10
43987;DHT22;29650;47.378;8.300;2023-07-24T09:54:29;23.50;80.30
43987;DHT22;29650;47.378;8.300;2023-07-24T09:56:59;23.70;82.60
43987;DHT22;29650;47.378;8.300;2023-07-24T09:59:27;23.50;81.40
43987;DHT22;29650;47.378;8.300;2023-07-24T10:01:58;23.50;85.30
43987;DHT22;29650;47.378;8.300;2023-07-24T10:04:26;23.40;84.80
43987;DHT22;29650;47.378;8.300;2023-07-24T10:06:53;23.20;88.60
43987;DHT22;29650;47.378;8.300;2023-07-24T10:09:21;23.50;87.00
43987;DHT22;29650;47.378;8.300;2023-07-24T10:11:49;23.50;87.40
43987;DHT22;29650;47.378;8.300;2023-07-24T10:14:16;23.60;85.30
43987;DHT22;29650;47.378;8.300;2023-07-24T10:16:44;23.70;83.50
43987;DHT22;29650;47.378;8.300;2023-07-24T10:19:16;23.70;83.20
43987;DHT22;29650;47.378;8.300;2023-07-24T10:21:46;23.70;84.30
43987;DHT22;29650;47.378;8.300;2023-07-24T10:24:14;23.60;87.30
43987;DHT22;29650;47.378;8.300;2023-07-24T10:26:42;23.40;90.50
43987;DHT22;29650;47.378;8.300;2023-07-24T10:29:09;23.20;91.60
43987;DHT22;29650;47.378;8.300;2023-07-24T10:31:38;23.10;92.50
43987;DHT22;29650;47.378;8.300;2023-07-24T10:34:07;23.10;95.20
43987;DHT22;29650;47.378;8.300;2023-07-24T10:36:36;23.00;95.50
43987;DHT22;29650;47.378;8.300;2023-07-24T10:39:13;22.40;96.60
43987;DHT22;29650;47.378;8.300;2023-07-24T10:41:41;22.70;98.60
43987;DHT22;29650;47.378;8.300;2023-07-24T10:44:10;23.20;96.00
43987;DHT22;29650;47.378;8.300;2023-07-24T10:46:44;23.30;99.90
43987;DHT22;29650;47.378;8.300;2023-07-24T10:49:11;22.90;96.80
43987;DHT22;29650;47.378;8.300;2023-07-24T10:51:40;22.50;99.70
43987;DHT22;29650;47.378;8.300;2023-07-24T10:54:10;21.00;99.90
43987;DHT22;29650;47.378;8.300;2023-07-24T10:56:37;18.80;99.90
43987;DHT22;29650;47.378;8.300;2023-07-24T10:59:05;17.80;99.90
43987;DHT22;29650;47.378;8.300;2023-07-24T11:01:32;18.40;99.90
43987;DHT22;29650;47.378;8.300;2023-07-24T11:03:59;19.40;99.90
43987;DHT22;29650;47.378;8.300;2023-07-24T11:06:27;19.60;99.90
43987;DHT22;29650;47.378;8.300;2023-07-24T11:08:58;20.30;99.90
43987;DHT22;29650;47.378;8.300;2023-07-24T11:11:29;20.60;99.90
43987;DHT22;29650;47.378;8.300;2023-07-24T11:13:56;20.80;99.90
43987;DHT22;29650;47.378;8.300;2023-07-24T11:16:23;20.90;99.90
43987;DHT22;29650;47.378;8.300;2023-07-24T11:18:51;21.00;99.90
43987;DHT22;29650;47.378;8.300;2023-07-24T11:21:18;20.80;99.90
43987;DHT22;29650;47.378;8.300;2023-07-24T11:23:50;20.60;99.90
43987;DHT22;29650;47.378;8.300;2023-07-24T11:26:20;20.90;99.90
43987;DHT22;29650;47.378;8.300;2023-07-24T11:28:48;20.90;99.90
43987;DHT22;29650;47.378;8.300;2023-07-24T11:31:15;21.10;99.90
43987;DHT22;29650;47.378;8.300;2023-07-24T11:33:46;21.30;99.90
43987;DHT22;29650;47.378;8.300;2023-07-24T11:36:14;21.30;99.90
43987;DHT22;29650;47.378;8.300;2023-07-24T11:38:41;20.40;99.90
43987;DHT22;29650;47.378;8.300;2023-07-24T11:41:08;20.60;99.90
43987;DHT22;29650;47.378;8.300;2023-07-24T11:43:45;21.00;99.90
43987;DHT22;29650;47.378;8.300;2023-07-24T11:46:22;21.40;99.90
43987;DHT22;29650;47.378;8.300;2023-07-24T11:48:50;21.40;99.90
43987;DHT22;29650;47.378;8.300;2023-07-24T11:51:19;21.50;99.90
43987;DHT22;29650;47.378;8.300;2023-07-24T11:53:46;21.50;99.90
43987;DHT22;29650;47.378;8.300;2023-07-24T11:56:15;21.70;99.90
43987;DHT22;29650;47.378;8.300;2023-07-24T11:58:44;21.80;99.90
43987;DHT22;29650;47.378;8.300;2023-07-24T12:01:12;21.70;99.90
43987;DHT22;29650;47.378;8.300;2023-07-24T12:03:40;21.80;99.90
43987;DHT22;29650;47.378;8.300;2023-07-24T12:06:14;22.30;99.90
43987;DHT22;29650;47.378;8.300;2023-07-24T12:08:41;22.40;99.90
43987;DHT22;29650;47.378;8.300;2023-07-24T12:11:16;22.50;99.90
43987;DHT22;29650;47.378;8.300;2023-07-24T12:13:45;22.40;99.90
43987;DHT22;29650;47.378;8.300;2023-07-24T12:16:12;22.30;99.90
43987;DHT22;29650;47.378;8.300;2023-07-24T12:18:39;22.30;99.90
43987;DHT22;29650;47.378;8.300;2023-07-24T12:21:13;22.30;99.90
43987;DHT22;29650;47.378;8.300;2023-07-24T12:23:41;22.50;99.90
43987;DHT22;29650;47.378;8.300;2023-07-24T12:26:08;22.60;99.90
43987;DHT22;29650;47.378;8.300;2023-07-24T12:28:35;22.70;99.90
43987;DHT22;29650;47.378;8.300;2023-07-24T12:31:04;22.80;99.90
43987;DHT22;29650;47.378;8.300;2023-07-24T12:33:31;23.10;97.50
43987;DHT22;29650;47.378;8.300;2023-07-24T12:35:58;23.10;90.60
43987;DHT22;29650;47.378;8.300;2023-07-24T12:38:25;23.30;85.50
43987;DHT22;29650;47.378;8.300;2023-07-24T12:40:52;23.60;86.70
43987;DHT22;29650;47.378;8.300;2023-07-24T12:43:19;23.80;84.60
43987;DHT22;29650;47.378;8.300;2023-07-24T12:45:46;23.60;83.70
43987;DHT22;29650;47.378;8.300;2023-07-24T12:48:18;23.60;87.60
43987;DHT22;29650;47.378;8.300;2023-07-24T12:50:45;23.40;88.10
43987;DHT22;29650;47.378;8.300;2023-07-24T12:53:12;23.50;93.80
43987;DHT22;29650;47.378;8.300;2023-07-24T12:55:39;23.70;91.70
43987;DHT22;29650;47.378;8.300;2023-07-24T12:58:06;24.10;87.30
43987;DHT22;29650;47.378;8.300;2023-07-24T13:00:36;24.10;86.50
43987;DHT22;29650;47.378;8.300;2023-07-24T13:03:03;24.30;83.80
43987;DHT22;29650;47.378;8.300;2023-07-24T13:05:32;24.50;82.90
43987;DHT22;29650;47.378;8.300;2023-07-24T13:07:59;23.90;86.10
43987;DHT22;29650;47.378;8.300;2023-07-24T13:10:26;24.00;86.70
43987;DHT22;29650;47.378;8.300;2023-07-24T13:12:52;23.90;85.40
43987;DHT22;29650;47.378;8.300;2023-07-24T13:15:19;23.80;88.40
43987;DHT22;29650;47.378;8.300;2023-07-24T13:17:48;23.90;88.90
43987;DHT22;29650;47.378;8.300;2023-07-24T13:20:15;24.00;90.60
43987;DHT22;29650;47.378;8.300;2023-07-24T13:22:44;24.10;90.60
43987;DHT22;29650;47.378;8.300;2023-07-24T13:25:12;24.10;89.20
43987;DHT22;29650;47.378;8.300;2023-07-24T13:27:40;23.80;86.30
43987;DHT22;29650;47.378;8.300;2023-07-24T13:30:08;23.60;87.10
43987;DHT22;29650;47.378;8.300;2023-07-24T13:32:35;23.20;87.40
43987;DHT22;29650;47.378;8.300;2023-07-24T13:35:05;23.20;83.40
43987;DHT22;29650;47.378;8.300;2023-07-24T13:37:32;23.20;85.00
43987;DHT22;29650;47.378;8.300;2023-07-24T13:40:01;23.30;81.00
43987;DHT22;29650;47.378;8.300;2023-07-24T13:42:28;23.20;80.70
43987;DHT22;29650;47.378;8.300;2023-07-24T13:44:55;23.00;87.40
43987;DHT22;29650;47.378;8.300;2023-07-24T13:47:25;22.90;90.10
43987;DHT22;29650;47.378;8.300;2023-07-24T13:49:53;22.70;95.00
43987;DHT22;29650;47.378;8.300;2023-07-24T13:52:28;22.40;98.40
43987;DHT22;29650;47.378;8.300;2023-07-24T13:54:56;22.10;99.90
43987;DHT22;29650;47.378;8.300;2023-07-24T13:57:24;22.20;99.90
43987;DHT22;29650;47.378;8.300;2023-07-24T13:59:51;22.20;99.90
43987;DHT22;29650;47.378;8.300;2023-07-24T14:02:19;22.30;99.90
43987;DHT22;29650;47.378;8.300;2023-07-24T14:04:46;22.20;99.90
43987;DHT22;29650;47.378;8.300;2023-07-24T14:07:13;22.20;99.90
43987;DHT22;29650;47.378;8.300;2023-07-24T14:09:40;22.70;99.90
43987;DHT22;29650;47.378;8.300;2023-07-24T14:12:09;22.40;99.90
43987;DHT22;29650;47.378;8.300;2023-07-24T14:14:38;22.40;99.90
43987;DHT22;29650;47.378;8.300;2023-07-24T14:17:06;23.00;99.90
43987;DHT22;29650;47.378;8.300;2023-07-24T14:19:34;22.90;98.00
43987;DHT22;29650;47.378;8.300;2023-07-24T14:22:01;22.70;97.40
43987;DHT22;29650;47.378;8.300;2023-07-24T14:24:29;22.10;99.90
43987;DHT22;29650;47.378;8.300;2023-07-24T14:26:56;22.00;99.90
43987;DHT22;29650;47.378;8.300;2023-07-24T14:29:23;21.50;99.90
43987;DHT22;29650;47.378;8.300;2023-07-24T14:31:52;21.70;99.90
43987;DHT22;29650;47.378;8.300;2023-07-24T14:34:19;21.60;99.90
43987;DHT22;29650;47.378;8.300;2023-07-24T14:36:46;21.50;99.90
43987;DHT22;29650;47.378;8.300;2023-07-24T14:39:13;21.20;99.90
43987;DHT22;29650;47.378;8.300;2023-07-24T14:41:40;21.20;99.90
43987;DHT22;29650;47.378;8.300;2023-07-24T14:44:08;21.10;99.90
43987;DHT22;29650;47.378;8.300;2023-07-24T14:46:36;21.20;99.90
43987;DHT22;29650;47.378;8.300;2023-07-24T14:49:04;21.30;98.80
43987;DHT22;29650;47.378;8.300;2023-07-24T14:51:31;21.60;95.60
43987;DHT22;29650;47.378;8.300;2023-07-24T14:53:59;21.30;97.10
43987;DHT22;29650;47.378;8.300;2023-07-24T14:56:26;20.60;99.90
43987;DHT22;29650;47.378;8.300;2023-07-24T14:58:53;20.80;99.90
43987;DHT22;29650;47.378;8.300;2023-07-24T15:01:20;20.80;99.90
43987;DHT22;29650;47.378;8.300;2023-07-24T15:03:47;21.20;98.40
43987;DHT22;29650;47.378;8.300;2023-07-24T15:06:15;21.10;96.60
43987;DHT22;29650;47.378;8.300;2023-07-24T15:08:43;20.90;95.90
43987;DHT22;29650;47.378;8.300;2023-07-24T15:11:10;20.70;96.70
43987;DHT22;29650;47.378;8.300;2023-07-24T15:13:38;20.70;98.50
43987;DHT22;29650;47.378;8.300;2023-07-24T15:16:05;21.00;99.10
43987;DHT22;29650;47.378;8.300;2023-07-24T15:18:32;21.10;98.90
43987;DHT22;29650;47.378;8.300;2023-07-24T15:21:00;21.10;98.20
43987;DHT22;29650;47.378;8.300;2023-07-24T15:23:29;21.40;97.80
43987;DHT22;29650;47.378;8.300;2023-07-24T15:25:56;21.90;95.90
43987;DHT22;29650;47.378;8.300;2023-07-24T15:28:23;22.10;94.40
43987;DHT22;29650;47.378;8.300;2023-07-24T15:30:50;22.30;93.90
43987;DHT22;29650;47.378;8.300;2023-07-24T15:33:18;22.00;96.10